createdAt,value
2018-04-01T00:00:55.191Z,4.10
2018-04-01T00:03:22.870Z,4.10
2018-04-01T00:05:50.579Z,4.10
2018-04-01T00:08:19.655Z,4.10
2018-04-01T00:10:47.332Z,4.10
2018-04-01T00:13:15.010Z,4.20
2018-04-01T00:15:43.047Z,4.20
2018-04-01T00:18:12.918Z,4.20
2018-04-01T00:20:40.615Z,4.20
2018-04-01T00:23:08.606Z,4.20
2018-04-01T00:25:36.210Z,4.30
2018-04-01T00:28:03.844Z,4.30
2018-04-01T00:30:33.673Z,4.30
2018-04-01T00:33:02.015Z,4.20
2018-04-01T00:35:29.635Z,4.20
2018-04-01T00:37:57.695Z,4.20
2018-04-01T00:40:26.059Z,4.20
2018-04-01T00:42:53.644Z,4.20
2018-04-01T00:45:21.633Z,4.10
2018-04-01T00:47:49.974Z,4.00
2018-04-01T00:50:20.395Z,3.90
2018-04-01T00:52:49.217Z,3.90
2018-04-01T00:55:17.588Z,3.90
2018-04-01T00:57:45.214Z,3.90
2018-04-01T01:00:13.231Z,3.90
2018-04-01T01:02:40.844Z,4.00
2018-04-01T01:05:08.452Z,4.00
2018-04-01T01:07:37.352Z,4.00
2018-04-01T01:10:05.005Z,4.00
2018-04-01T01:12:32.612Z,4.10
2018-04-01T01:15:01.802Z,4.20
2018-04-01T01:17:29.427Z,4.10
2018-04-01T01:19:58.416Z,4.20
2018-04-01T01:22:27.167Z,4.30
2018-04-01T01:24:55.511Z,4.30
2018-04-01T01:27:23.119Z,4.30
2018-04-01T01:29:51.547Z,4.30
2018-04-01T01:32:19.149Z,4.30
2018-04-01T01:34:46.749Z,4.30
2018-04-01T01:37:14.351Z,4.20
2018-04-01T01:39:42.749Z,4.10
2018-04-01T01:42:10.354Z,4.10
2018-04-01T01:44:38.739Z,4.00
2018-04-01T01:47:07.489Z,3.90
2018-04-01T01:49:35.693Z,3.90
2018-04-01T01:52:04.054Z,3.80
2018-04-01T01:54:34.326Z,3.80
2018-04-01T01:57:01.983Z,3.80
2018-04-01T01:59:30.376Z,3.80
2018-04-01T02:01:58.970Z,3.70
2018-04-01T02:04:26.560Z,3.80
2018-04-01T02:06:54.152Z,3.70
2018-04-01T02:09:22.607Z,3.70
2018-04-01T02:11:50.238Z,3.70
2018-04-01T02:14:18.642Z,3.70
2018-04-01T02:16:46.974Z,3.70
2018-04-01T02:19:14.576Z,3.70
2018-04-01T02:21:43.333Z,3.80
2018-04-01T02:24:11.396Z,3.80
2018-04-01T02:26:38.984Z,3.80
2018-04-01T02:29:06.577Z,3.90
2018-04-01T02:31:35.449Z,3.90
2018-04-01T02:34:02.987Z,3.90
2018-04-01T02:36:30.607Z,3.90
2018-04-01T02:38:59.042Z,3.90
2018-04-01T02:41:26.637Z,4.00
2018-04-01T02:43:54.987Z,4.00
2018-04-01T02:46:23.279Z,4.00
2018-04-01T02:48:50.855Z,4.10
2018-04-01T02:51:19.217Z,4.20
2018-04-01T02:53:47.240Z,4.20
2018-04-01T02:56:14.831Z,4.30
2018-04-01T02:58:42.417Z,4.30
2018-04-01T03:01:11.114Z,4.30
2018-04-01T03:03:38.724Z,4.30
2018-04-01T03:06:06.297Z,4.30
2018-04-01T03:08:35.143Z,4.30
2018-04-01T03:11:02.790Z,4.00
2018-04-01T03:13:30.366Z,3.70
2018-04-01T03:16:00.107Z,3.20
2018-04-01T03:18:27.685Z,3.20
2018-04-01T03:20:56.038Z,3.20
2018-04-01T03:23:24.283Z,3.20
2018-04-01T03:25:53.338Z,3.20
2018-04-01T03:28:21.689Z,3.30
2018-04-01T03:30:49.304Z,3.30
2018-04-01T03:33:17.269Z,3.30
2018-04-01T03:35:45.635Z,3.40
2018-04-01T03:38:14.009Z,3.40
2018-04-01T03:40:41.992Z,3.40
2018-04-01T03:43:10.344Z,3.40
2018-04-01T03:45:37.949Z,3.40
2018-04-01T03:48:07.652Z,3.50
2018-04-01T03:50:35.244Z,3.50
2018-04-01T03:53:02.830Z,3.50
2018-04-01T03:55:31.227Z,3.50
2018-04-01T03:57:58.844Z,3.50
2018-04-01T04:00:27.223Z,3.50
2018-04-01T04:02:55.446Z,3.50
2018-04-01T04:05:23.312Z,3.60
2018-04-01T04:07:50.915Z,3.60
2018-04-01T04:10:18.921Z,3.60
2018-04-01T04:12:47.256Z,3.60
2018-04-01T04:15:14.839Z,3.50
2018-04-01T04:17:43.547Z,3.60
2018-04-01T04:20:11.133Z,3.60
2018-04-01T04:22:38.721Z,3.60
2018-04-01T04:25:08.795Z,3.60
2018-04-01T04:27:36.394Z,3.60
2018-04-01T04:30:04.046Z,3.60
2018-04-01T04:32:32.096Z,3.50
2018-04-01T04:34:59.664Z,3.50
2018-04-01T04:37:27.490Z,3.50
2018-04-01T04:39:55.817Z,3.50
2018-04-01T04:42:23.406Z,3.60
2018-04-01T04:44:51.773Z,3.60
2018-04-01T04:47:20.534Z,3.60
2018-04-01T04:49:48.135Z,3.60
2018-04-01T04:52:16.488Z,3.70
2018-04-01T04:54:44.772Z,3.70
2018-04-01T04:57:12.367Z,3.70
2018-04-01T04:59:39.961Z,3.70
2018-04-01T05:02:08.004Z,3.70
2018-04-01T05:04:36.358Z,3.70
2018-04-01T05:07:03.947Z,3.70
2018-04-01T05:09:33.462Z,3.80
2018-04-01T05:12:01.086Z,3.70
2018-04-01T05:14:28.659Z,3.80
2018-04-01T05:16:58.021Z,3.70
2018-04-01T05:19:25.604Z,3.70
2018-04-01T05:21:53.245Z,3.70
2018-04-01T05:24:22.310Z,3.80
2018-04-01T05:26:51.271Z,3.70
2018-04-01T05:29:18.967Z,3.80
2018-04-01T05:31:47.048Z,3.80
2018-04-01T05:34:14.667Z,3.80
2018-04-01T05:36:42.264Z,3.90
2018-04-01T05:39:11.274Z,3.90
2018-04-01T05:41:38.890Z,3.90
2018-04-01T05:44:06.632Z,3.90
2018-04-01T05:46:35.087Z,3.90
2018-04-01T05:49:02.747Z,4.00
2018-04-01T05:51:30.411Z,4.00
2018-04-01T05:53:58.725Z,4.10
2018-04-01T05:56:26.982Z,4.10
2018-04-01T05:58:54.642Z,4.10
2018-04-01T06:01:22.257Z,4.10
2018-04-01T06:03:50.735Z,4.20
2018-04-01T06:06:18.345Z,4.20
2018-04-01T06:08:45.932Z,4.20
2018-04-01T06:11:14.461Z,4.20
2018-04-01T06:13:42.808Z,4.20
2018-04-01T06:16:10.384Z,4.20
2018-04-01T06:18:38.666Z,4.20
2018-04-01T06:21:06.251Z,4.20
2018-04-01T06:23:34.608Z,4.20
2018-04-01T06:26:03.084Z,4.20
2018-04-01T06:28:32.748Z,4.20
2018-04-01T06:31:00.432Z,4.30
2018-04-01T06:33:28.918Z,4.30
2018-04-01T06:35:56.492Z,4.30
2018-04-01T06:38:24.098Z,4.30
2018-04-01T06:40:52.361Z,4.20
2018-04-01T06:43:19.938Z,4.20
2018-04-01T06:45:47.520Z,4.20
2018-04-01T06:48:16.596Z,4.20
2018-04-01T06:50:44.286Z,4.20
2018-04-01T06:53:11.850Z,4.20
2018-04-01T06:55:40.518Z,4.30
2018-04-01T06:58:08.092Z,4.30
2018-04-01T07:00:35.699Z,4.30
2018-04-01T07:03:04.179Z,4.30
2018-04-01T07:05:31.798Z,4.20
2018-04-01T07:07:59.582Z,4.20
2018-04-01T07:10:29.003Z,4.10
2018-04-01T07:12:56.746Z,4.10
2018-04-01T07:15:24.351Z,4.00
2018-04-01T07:17:52.382Z,3.90
2018-04-01T07:20:20.160Z,3.90
2018-04-01T07:22:49.528Z,3.80
2018-04-01T07:25:18.081Z,3.80
2018-04-01T07:27:46.560Z,3.60
2018-04-01T07:30:16.628Z,3.60
2018-04-01T07:32:45.340Z,3.60
2018-04-01T07:35:13.068Z,3.60
2018-04-01T07:37:41.394Z,3.50
2018-04-01T07:40:10.424Z,3.50
2018-04-01T07:42:38.253Z,3.60
2018-04-01T07:45:07.579Z,3.70
2018-04-01T07:47:38.180Z,3.70
2018-04-01T07:50:08.199Z,3.70
2018-04-01T07:52:35.967Z,3.70
2018-04-01T07:55:05.173Z,3.70
2018-04-01T07:57:32.782Z,3.70
2018-04-01T08:00:00.505Z,3.70
2018-04-01T08:02:29.334Z,3.80
2018-04-01T08:04:57.144Z,3.80
2018-04-01T08:07:24.811Z,3.90
2018-04-01T08:09:53.170Z,3.90
2018-04-01T08:12:20.838Z,4.10
2018-04-01T08:14:48.503Z,4.10
2018-04-01T08:17:19.460Z,4.40
2018-04-01T08:19:49.562Z,4.40
2018-04-01T08:22:17.408Z,4.60
2018-04-01T08:24:47.006Z,4.80
2018-04-01T08:27:14.685Z,4.90
2018-04-01T08:29:42.299Z,5.00
2018-04-01T08:32:13.071Z,5.20
2018-04-01T08:34:41.467Z,5.20
2018-04-01T08:37:10.134Z,5.30
2018-04-01T08:39:38.274Z,5.30
2018-04-01T08:42:06.635Z,5.50
2018-04-01T08:44:34.266Z,5.50
2018-04-01T08:47:02.515Z,5.70
2018-04-01T08:49:30.130Z,5.90
2018-04-01T08:51:57.706Z,6.10
2018-04-01T08:54:26.143Z,6.30
2018-04-01T08:56:54.493Z,6.30
2018-04-01T08:59:22.125Z,6.30
2018-04-01T09:01:50.156Z,6.50
2018-04-01T09:04:18.555Z,6.80
2018-04-01T09:06:46.163Z,6.70
2018-04-01T09:09:14.536Z,7.00
2018-04-01T09:11:42.123Z,7.10
2018-04-01T09:14:09.726Z,7.00
2018-04-01T09:16:38.924Z,7.30
2018-04-01T09:19:07.281Z,7.20
2018-04-01T09:21:34.937Z,7.10
2018-04-01T09:24:02.894Z,7.20
2018-04-01T09:26:30.520Z,7.40
2018-04-01T09:28:58.156Z,7.80
2018-04-01T09:31:26.403Z,7.70
2018-04-01T09:33:55.511Z,7.40
2018-04-01T09:36:23.862Z,7.80
2018-04-01T09:38:52.307Z,7.80
2018-04-01T09:41:19.905Z,8.20
2018-04-01T09:43:47.495Z,8.20
2018-04-01T09:46:15.506Z,8.50
2018-04-01T09:48:43.111Z,9.10
2018-04-01T09:51:10.721Z,8.70
2018-04-01T09:53:38.912Z,8.50
2018-04-01T09:56:06.510Z,8.60
2018-04-01T09:58:34.865Z,8.30
2018-04-01T10:01:04.371Z,8.30
2018-04-01T10:03:32.482Z,8.30
2018-04-01T10:06:01.325Z,8.00
2018-04-01T10:08:30.776Z,7.90
2018-04-01T10:10:59.102Z,7.90
2018-04-01T10:13:28.187Z,7.30
2018-04-01T10:15:57.160Z,7.20
2018-04-01T10:18:25.465Z,7.30
2018-04-01T10:20:53.802Z,7.90
2018-04-01T10:23:23.201Z,8.80
2018-04-01T10:25:51.522Z,9.00
2018-04-01T10:28:19.837Z,8.90
2018-04-01T10:30:48.822Z,9.00
2018-04-01T10:33:17.384Z,9.00
2018-04-01T10:35:47.028Z,9.20
2018-04-01T10:38:16.046Z,9.30
2018-04-01T10:40:44.402Z,9.10
2018-04-01T10:43:13.119Z,8.90
2018-04-01T10:45:45.273Z,9.00
2018-04-01T10:48:14.373Z,8.80
2018-04-01T10:50:42.688Z,8.80
2018-04-01T10:53:11.859Z,8.80
2018-04-01T10:55:40.450Z,8.90
2018-04-01T10:58:08.896Z,8.90
2018-04-01T11:00:37.317Z,8.90
2018-04-01T11:03:04.930Z,8.90
2018-04-01T11:05:33.301Z,8.90
2018-04-01T11:08:02.072Z,8.90
2018-04-01T11:10:29.646Z,8.90
2018-04-01T11:12:57.218Z,8.90
2018-04-01T11:15:26.283Z,8.10
2018-04-01T11:17:54.637Z,8.20
2018-04-01T11:20:22.217Z,8.20
2018-04-01T11:22:50.193Z,8.10
2018-04-01T11:25:17.770Z,8.10
2018-04-01T11:27:45.341Z,8.30
2018-04-01T11:30:14.044Z,8.10
2018-04-01T11:32:42.425Z,8.20
2018-04-01T11:35:10.006Z,8.20
2018-04-01T11:37:39.586Z,8.30
2018-04-01T11:40:07.176Z,8.80
2018-04-01T11:42:34.789Z,9.40
2018-04-01T11:45:02.866Z,9.30
2018-04-01T11:47:30.452Z,9.60
2018-04-01T11:49:58.041Z,9.30
2018-04-01T11:52:26.513Z,9.60
2018-04-01T11:54:54.137Z,9.80
2018-04-01T11:57:21.764Z,9.70
2018-04-01T11:59:50.504Z,9.40
2018-04-01T12:02:18.114Z,9.10
2018-04-01T12:04:45.713Z,9.00
2018-04-01T12:07:14.718Z,8.70
2018-04-01T12:09:42.343Z,8.60
2018-04-01T12:12:09.916Z,9.20
2018-04-01T12:14:38.178Z,9.80
2018-04-01T12:17:05.779Z,9.60
2018-04-01T12:19:34.179Z,9.60
2018-04-01T12:22:02.644Z,9.50
2018-04-01T12:24:30.246Z,10.00
2018-04-01T12:26:57.814Z,10.90
2018-04-01T12:29:25.849Z,11.70
2018-04-01T12:31:54.190Z,11.10
2018-04-01T12:34:21.774Z,10.30
2018-04-01T12:36:51.919Z,9.10
2018-04-01T12:39:21.083Z,6.90
2018-04-01T12:41:48.695Z,6.90
2018-04-01T12:44:16.765Z,6.50
2018-04-01T12:46:45.157Z,7.00
2018-04-01T12:49:12.872Z,7.00
2018-04-01T12:51:41.083Z,8.50
2018-04-01T12:54:09.473Z,9.80
2018-04-01T12:56:37.085Z,9.80
2018-04-01T12:59:05.522Z,9.40
2018-04-01T13:01:33.916Z,7.80
2018-04-01T13:04:02.262Z,6.90
2018-04-01T13:06:30.489Z,6.90
2018-04-01T13:08:58.098Z,6.50
2018-04-01T13:11:25.702Z,6.50
2018-04-01T13:13:54.717Z,6.80
2018-04-01T13:16:22.325Z,6.80
2018-04-01T13:18:49.947Z,7.10
2018-04-01T13:21:18.646Z,7.10
2018-04-01T13:23:46.243Z,7.10
2018-04-01T13:26:13.897Z,7.00
2018-04-01T13:28:41.496Z,6.80
2018-04-01T13:31:10.265Z,6.80
2018-04-01T13:33:37.857Z,6.90
2018-04-01T13:36:05.461Z,7.10
2018-04-01T13:38:34.444Z,8.70
2018-04-01T13:41:03.448Z,8.70
2018-04-01T13:43:31.035Z,9.10
2018-04-01T13:45:59.152Z,9.10
2018-04-01T13:48:26.764Z,9.20
2018-04-01T13:50:55.115Z,10.10
2018-04-01T13:53:23.816Z,10.00
2018-04-01T13:55:52.179Z,9.00
2018-04-01T13:58:19.814Z,9.00
2018-04-01T14:00:48.491Z,8.60
2018-04-01T14:03:16.079Z,8.40
2018-04-01T14:05:43.657Z,8.40
2018-04-01T14:08:11.281Z,8.10
2018-04-01T14:10:39.732Z,7.90
2018-04-01T14:13:07.340Z,7.70
2018-04-01T14:15:34.920Z,7.70
2018-04-01T14:18:03.211Z,7.60
2018-04-01T14:20:30.815Z,7.70
2018-04-01T14:22:58.403Z,7.60
2018-04-01T14:25:27.361Z,7.30
2018-04-01T14:27:54.995Z,7.30
2018-04-01T14:30:22.583Z,7.20
2018-04-01T14:32:50.194Z,7.20
2018-04-01T14:35:19.061Z,7.10
2018-04-01T14:37:47.440Z,6.90
2018-04-01T14:40:15.874Z,6.80
2018-04-01T14:42:44.920Z,6.80
2018-04-01T14:45:12.546Z,6.80
2018-04-01T14:47:40.185Z,7.00
2018-04-01T14:50:08.565Z,7.20
2018-04-01T14:52:36.907Z,8.30
2018-04-01T14:55:04.726Z,8.30
2018-04-01T14:57:33.188Z,8.50
2018-04-01T15:00:00.819Z,8.90
2018-04-01T15:02:28.400Z,8.70
2018-04-01T15:04:56.870Z,8.30
2018-04-01T15:07:24.473Z,8.00
2018-04-01T15:09:52.130Z,7.50
2018-04-01T15:12:20.439Z,7.00
2018-04-01T15:14:48.798Z,6.30
2018-04-01T15:17:17.154Z,5.40
2018-04-01T15:19:45.237Z,5.40
2018-04-01T15:22:12.852Z,4.30
2018-04-01T15:24:40.444Z,3.30
2018-04-01T15:27:08.033Z,2.80
2018-04-01T15:29:36.896Z,2.50
2018-04-01T15:32:04.456Z,2.30
2018-04-01T15:34:32.094Z,2.30
2018-04-01T15:37:00.835Z,2.30
2018-04-01T15:39:28.414Z,2.30
2018-04-01T15:41:56.077Z,2.30
2018-04-01T15:44:25.685Z,2.50
2018-04-01T15:46:53.263Z,2.60
2018-04-01T15:49:20.898Z,2.60
2018-04-01T15:51:50.378Z,2.50
2018-04-01T15:54:18.738Z,2.50
2018-04-01T15:56:47.133Z,2.50
2018-04-01T15:59:15.898Z,2.50
2018-04-01T16:01:43.529Z,2.50
2018-04-01T16:04:11.160Z,2.60
2018-04-01T16:06:40.467Z,2.60
2018-04-01T16:09:08.805Z,2.70
2018-04-01T16:11:36.398Z,2.60
2018-04-01T16:14:04.783Z,2.80
2018-04-01T16:16:32.354Z,2.80
2018-04-01T16:19:00.441Z,2.80
2018-04-01T16:21:28.059Z,2.70
2018-04-01T16:23:56.774Z,2.60
2018-04-01T16:26:24.639Z,2.30
2018-04-01T16:28:52.248Z,2.10
2018-04-01T16:31:21.649Z,1.90
2018-04-01T16:33:49.261Z,1.80
2018-04-01T16:36:16.882Z,1.80
2018-04-01T16:38:46.147Z,2.00
2018-04-01T16:41:13.739Z,2.00
2018-04-01T16:43:45.232Z,2.50
2018-04-01T16:46:15.705Z,2.50
2018-04-01T16:48:44.095Z,3.10
2018-04-01T16:51:11.923Z,3.10
2018-04-01T16:53:40.923Z,3.00
2018-04-01T16:56:08.869Z,2.90
2018-04-01T16:58:36.496Z,2.80
2018-04-01T17:01:05.053Z,2.70
2018-04-01T17:03:33.158Z,2.70
2018-04-01T17:06:04.753Z,2.50
2018-04-01T17:08:34.430Z,2.50
2018-04-01T17:11:04.625Z,2.50
2018-04-01T17:13:37.035Z,2.50
2018-04-01T17:16:05.808Z,2.60
2018-04-01T17:18:35.898Z,2.60
2018-04-01T17:21:04.879Z,2.70
2018-04-01T17:23:33.699Z,2.70
2018-04-01T17:26:03.289Z,2.80
2018-04-01T17:28:32.089Z,2.80
2018-04-01T17:30:59.819Z,2.90
2018-04-01T17:33:28.602Z,2.90
2018-04-01T17:35:57.701Z,2.90
2018-04-01T17:38:25.317Z,2.90
2018-04-01T17:40:52.908Z,2.90
2018-04-01T17:43:20.893Z,2.90
2018-04-01T17:45:50.115Z,2.90
2018-04-01T17:48:20.808Z,2.90
2018-04-01T17:50:49.339Z,2.90
2018-04-01T17:53:17.507Z,2.90
2018-04-01T17:55:45.118Z,3.00
2018-04-01T17:58:13.302Z,3.00
2018-04-01T18:00:42.078Z,3.00
2018-04-01T18:03:10.032Z,2.90
2018-04-01T18:05:38.851Z,2.80
2018-04-01T18:08:07.069Z,2.80
2018-04-01T18:10:34.688Z,2.80
2018-04-01T18:13:02.977Z,2.70
2018-04-01T18:15:32.125Z,2.60
2018-04-01T18:18:02.751Z,2.50
2018-04-01T18:20:30.438Z,2.50
2018-04-01T18:22:59.003Z,2.40
2018-04-01T18:25:27.058Z,2.40
2018-04-01T18:27:55.650Z,2.30
2018-04-01T18:30:24.467Z,2.30
2018-04-01T18:32:52.175Z,2.30
2018-04-01T18:35:19.880Z,2.30
2018-04-01T18:37:48.012Z,2.30
2018-04-01T18:40:16.460Z,2.40
2018-04-01T18:42:44.658Z,2.40
2018-04-01T18:45:14.172Z,2.30
2018-04-01T18:47:41.758Z,2.30
2018-04-01T18:50:11.026Z,2.30
2018-04-01T18:52:39.488Z,2.30
2018-04-01T18:55:07.083Z,2.30
2018-04-01T18:57:35.465Z,2.30
2018-04-01T19:00:04.840Z,2.40
2018-04-01T19:02:32.530Z,2.40
2018-04-01T19:05:00.347Z,2.40
2018-04-01T19:07:28.502Z,2.50
2018-04-01T19:09:58.194Z,2.60
2018-04-01T19:12:26.637Z,2.70
2018-04-01T19:14:54.856Z,2.70
2018-04-01T19:17:22.966Z,2.70
2018-04-01T19:19:51.298Z,2.70
2018-04-01T19:22:20.893Z,2.70
2018-04-01T19:24:49.210Z,2.80
2018-04-01T19:27:18.293Z,2.80
2018-04-01T19:29:48.865Z,2.80
2018-04-01T19:32:18.214Z,2.90
2018-04-01T19:34:47.304Z,2.90
2018-04-01T19:37:16.052Z,2.80
2018-04-01T19:39:45.048Z,2.90
2018-04-01T19:42:13.426Z,2.90
2018-04-01T19:44:42.634Z,3.00
2018-04-01T19:47:11.843Z,3.00
2018-04-01T19:49:43.015Z,3.00
2018-04-01T19:52:14.500Z,3.10
2018-04-01T19:54:42.958Z,3.10
2018-04-01T19:57:11.956Z,3.20
2018-04-01T19:59:41.858Z,3.20
2018-04-01T20:02:10.460Z,3.30
2018-04-01T20:04:38.892Z,3.20
2018-04-01T20:07:08.632Z,3.30
2018-04-01T20:09:37.228Z,3.30
2018-04-01T20:12:05.648Z,3.20
2018-04-01T20:14:35.340Z,3.30
2018-04-01T20:17:04.659Z,3.20
2018-04-01T20:19:33.981Z,3.10
2018-04-01T20:22:03.772Z,3.10
2018-04-01T20:24:33.025Z,3.10
2018-04-01T20:27:02.312Z,3.20
2018-04-01T20:29:31.088Z,3.10
2018-04-01T20:31:59.891Z,3.10
2018-04-01T20:34:28.222Z,3.10
2018-04-01T20:36:57.016Z,3.10
2018-04-01T20:39:25.600Z,3.10
2018-04-01T20:41:54.033Z,3.10
2018-04-01T20:44:22.589Z,3.10
2018-04-01T20:46:52.151Z,3.20
2018-04-01T20:49:21.662Z,3.20
2018-04-01T20:51:50.419Z,3.20
2018-04-01T20:54:21.706Z,3.20
2018-04-01T20:56:50.274Z,3.20
2018-04-01T20:59:19.511Z,3.20
2018-04-01T21:01:50.118Z,3.30
2018-04-01T21:04:20.515Z,3.20
2018-04-01T21:06:50.253Z,3.20
2018-04-01T21:09:18.839Z,3.30
2018-04-01T21:11:47.598Z,3.30
2018-04-01T21:14:17.775Z,3.30
2018-04-01T21:16:46.092Z,3.30
2018-04-01T21:19:14.547Z,3.30
2018-04-01T21:21:43.851Z,3.30
2018-04-01T21:24:13.583Z,3.30
2018-04-01T21:26:41.997Z,3.30
2018-04-01T21:29:11.569Z,3.30
2018-04-01T21:31:40.821Z,3.30
2018-04-01T21:34:09.946Z,3.30
2018-04-01T21:36:40.190Z,3.30
2018-04-01T21:39:08.783Z,3.30
2018-04-01T21:41:37.129Z,3.30
2018-04-01T21:44:06.272Z,3.30
2018-04-01T21:46:35.657Z,3.20
2018-04-01T21:49:04.331Z,3.20
2018-04-01T21:51:33.560Z,3.20
2018-04-01T21:54:03.216Z,3.10
2018-04-01T21:56:33.455Z,3.10
2018-04-01T21:59:02.610Z,2.90
2018-04-01T22:01:31.941Z,2.90
2018-04-01T22:04:01.711Z,2.90
2018-04-01T22:06:34.287Z,2.90
2018-04-01T22:09:03.935Z,2.90
2018-04-01T22:11:33.318Z,2.80
2018-04-01T22:14:02.275Z,2.80
2018-04-01T22:16:31.376Z,2.80
2018-04-01T22:18:59.771Z,2.70
2018-04-01T22:21:29.136Z,2.70
2018-04-01T22:23:58.321Z,2.70
2018-04-01T22:26:27.627Z,2.60
2018-04-01T22:28:57.023Z,2.60
2018-04-01T22:31:27.250Z,2.60
2018-04-01T22:33:55.609Z,2.60
2018-04-01T22:36:24.713Z,2.60
2018-04-01T22:38:53.618Z,2.60
2018-04-01T22:41:22.741Z,2.60
2018-04-01T22:43:51.058Z,2.50
2018-04-01T22:46:20.027Z,2.50
2018-04-01T22:48:48.336Z,2.50
2018-04-01T22:51:16.662Z,2.50
2018-04-01T22:53:45.903Z,2.50
2018-04-01T22:56:14.202Z,2.60
2018-04-01T22:58:44.088Z,2.60
2018-04-01T23:01:13.605Z,2.60
2018-04-01T23:03:44.004Z,2.60
2018-04-01T23:06:13.830Z,2.70
2018-04-01T23:08:42.139Z,2.70
2018-04-01T23:11:10.519Z,2.70
2018-04-01T23:13:39.573Z,2.70
2018-04-01T23:16:08.679Z,2.60
2018-04-01T23:18:37.759Z,2.60
2018-04-01T23:21:07.677Z,2.60
2018-04-01T23:23:36.808Z,2.70
2018-04-01T23:26:05.888Z,2.70
2018-04-01T23:28:35.103Z,2.70
2018-04-01T23:31:04.203Z,2.70
2018-04-01T23:33:32.566Z,2.60
2018-04-01T23:36:01.403Z,2.70
2018-04-01T23:38:29.738Z,2.70
2018-04-01T23:40:58.065Z,2.60
2018-04-01T23:43:27.128Z,2.60
2018-04-01T23:45:56.212Z,2.50
2018-04-01T23:48:24.533Z,2.50
2018-04-01T23:50:54.653Z,2.30
2018-04-01T23:53:23.742Z,2.30
2018-04-01T23:55:52.842Z,2.20
2018-04-01T23:58:23.111Z,2.20
